Observation data for White River Lake on 08/13/2019      Previous  Date       Current Mesonet Observations  Soil Data  Daily Summary Page  Observations in Plain Language
KWVS 130500Z 13007KT 31/15 A2989 RMK A01 T03090145  RH  039%=      5-min Rain = 0
KWVS 130505Z 14007KT 31/15 A2989 RMK A01 T03090145  RH  039%=      5-min Rain = 0
KWVS 130510Z 14007KT 31/15 A2989 RMK A01 T03080145  RH  039%=      5-min Rain = 0
KWVS 130515Z 13007KT 31/15 A2989 RMK A01 T03080145  RH  039%=      5-min Rain = 0
KWVS 130520Z 13006KT 31/15 A2989 RMK A01 T03090145  RH  039%=      5-min Rain = 0
KWVS 130525Z 13005KT 31/15 A2989 RMK A01 T03080145  RH  039%=      5-min Rain = 0
KWVS 130530Z 13005KT 31/15 A299 RMK A01 T03060145  RH  039%=      5-min Rain = 0
KWVS 130535Z 11004KT 30/15 A299 RMK A01 T03040145  RH  040%=      5-min Rain = 0
KWVS 130540Z 10004KT 30/14 A299 RMK A01 T03040144  RH  039%=      5-min Rain = 0
KWVS 130545Z 11004KT 30/14 A299 RMK A01 T03040144  RH  039%=      5-min Rain = 0
KWVS 130550Z 10004KT 30/14 A299 RMK A01 T03030144  RH  040%=      5-min Rain = 0
KWVS 130555Z 10004KT 30/14 A299 RMK A01 T03020143  RH  040%=      5-min Rain = 0
KWVS 130600Z 08003KT 30/15 A299 RMK A01 T03030145  RH  040%=      5-min Rain = 0
KWVS 130605Z 07002KT 30/15 A299 RMK A01 T03030145  RH  040%=      5-min Rain = 0
KWVS 130610Z 10002KT 30/14 A299 RMK A01 T03020144  RH  040%=      5-min Rain = 0
KWVS 130615Z 11004KT 30/14 A299 RMK A01 T03030143  RH  040%=      5-min Rain = 0
KWVS 130620Z 10004KT 30/14 A299 RMK A01 T02970143  RH  041%=      5-min Rain = 0
KWVS 130625Z 09004KT 30/14 A299 RMK A01 T02980142  RH  040%=      5-min Rain = 0
KWVS 130630Z 09004KT 30/14 A299 RMK A01 T02960142  RH  041%=      5-min Rain = 0
KWVS 130635Z 07004KT 29/14 A2991 RMK A01 T02920142  RH  041%=      5-min Rain = 0
KWVS 130640Z 07005KT 29/14 A299 RMK A01 T02930141  RH  041%=      5-min Rain = 0
KWVS 130645Z 06006KT 29/14 A2991 RMK A01 T02890141  RH  042%=      5-min Rain = 0
KWVS 130650Z 04009KT 28/14 A2991 RMK A01 T02830141  RH  044%=      5-min Rain = 0
KWVS 130655Z 02012G17KT 28/14 A2992 RMK A01 T02800141  RH  044%=      5-min Rain = 0
KWVS 130700Z 01017G24KT 28/15 A2992 RMK A01 T02760154  RH  050%=      5-min Rain = 0
KWVS 130705Z 02017KT 26/17 A2993 RMK A01 T02590168  RH  060%=      5-min Rain = 0
KWVS 130710Z 01014G19KT 25/17 A2993 RMK A01 T02520171  RH  064%=      5-min Rain = 0
KWVS 130715Z 02016G22KT 25/17 A2993 RMK A01 T02490172  RH  066%=      5-min Rain = 0
KWVS 130720Z 01019G24KT 25/17 A2993 RMK A01 T02470173  RH  067%=      5-min Rain = 0
KWVS 130725Z 01016G22KT 24/17 A2993 RMK A01 T02440174  RH  068%=      5-min Rain = 0
KWVS 130730Z 01016KT 24/17 A2993 RMK A01 T02440173  RH  068%=      5-min Rain = 0
KWVS 130735Z 01017G22KT 24/17 A2993 RMK A01 T02440173  RH  068%=      5-min Rain = 0
KWVS 130740Z 01015KT 24/17 A2993 RMK A01 T02430173  RH  069%=      5-min Rain = 0
KWVS 130745Z 02016KT 24/17 A2993 RMK A01 T02420174  RH  069%=      5-min Rain = 0
KWVS 130750Z 02015G20KT 24/17 A2993 RMK A01 T02410174  RH  069%=      5-min Rain = 0
KWVS 130755Z 02015G20KT 24/17 A2993 RMK A01 T02410174  RH  069%=      5-min Rain = 0
KWVS 130800Z 02016KT 24/18 A2993 RMK A01 T02400175  RH  070%=      5-min Rain = 0
KWVS 130805Z 01013G19KT 24/18 A2993 RMK A01 T02380175  RH  071%=      5-min Rain = 0
KWVS 130810Z 01014KT 24/18 A2994 RMK A01 T02370175  RH  072%=      5-min Rain = 0
KWVS 130815Z 01013KT 24/18 A2994 RMK A01 T02370176  RH  072%=      5-min Rain = 0
KWVS 130820Z 02010G15KT 24/18 A2994 RMK A01 T02360176  RH  073%=      5-min Rain = 0
KWVS 130825Z 02011KT 24/18 A2994 RMK A01 T02350176  RH  073%=      5-min Rain = 0
KWVS 130830Z 03012G18KT 24/18 A2994 RMK A01 T02350176  RH  073%=      5-min Rain = 0
KWVS 130835Z 03012KT 23/18 A2994 RMK A01 T02340176  RH  074%=      5-min Rain = 0
KWVS 130840Z 03012KT 23/18 A2994 RMK A01 T02340177  RH  074%=      5-min Rain = 0
KWVS 130845Z 04011G17KT 23/18 A2994 RMK A01 T02330177  RH  074%=      5-min Rain = 0
KWVS 130850Z 04012KT 23/18 A2994 RMK A01 T02330177  RH  075%=      5-min Rain = 0
KWVS 130855Z 04011KT 23/18 A2994 RMK A01 T02320177  RH  075%=      5-min Rain = 0
KWVS 130900Z 04011KT 23/18 A2994 RMK A01 T02310177  RH  075%=      5-min Rain = 0
KWVS 130905Z 03012KT 23/18 A2994 RMK A01 T02300177  RH  076%=      5-min Rain = 0
KWVS 130910Z 04014KT 23/18 A2994 RMK A01 T02300178  RH  076%=      5-min Rain = 0
KWVS 130915Z 03013KT 23/18 A2994 RMK A01 T02290178  RH  077%=      5-min Rain = 0
KWVS 130920Z 03014G19KT 23/18 A2994 RMK A01 T02290178  RH  077%=      5-min Rain = 0
KWVS 130925Z 03012KT 23/18 A2994 RMK A01 T02280178  RH  077%=      5-min Rain = 0
KWVS 130930Z 04013KT 23/18 A2994 RMK A01 T02270178  RH  078%=      5-min Rain = 0
KWVS 130935Z 04014KT 23/18 A2994 RMK A01 T02270178  RH  078%=      5-min Rain = 0
KWVS 130940Z 04013KT 23/18 A2994 RMK A01 T02270178  RH  078%=      5-min Rain = 0
KWVS 130945Z 04013KT 23/18 A2994 RMK A01 T02260178  RH  079%=      5-min Rain = 0
KWVS 130950Z 04013KT 23/18 A2994 RMK A01 T02250178  RH  079%=      5-min Rain = 0
KWVS 130955Z 04012KT 23/18 A2994 RMK A01 T02250178  RH  079%=      5-min Rain = 0
KWVS 131000Z 04011KT 23/18 A2995 RMK A01 T02250178  RH  079%=      5-min Rain = 0
KWVS 131005Z 03012KT 22/18 A2995 RMK A01 T02240178  RH  079%=      5-min Rain = 0
KWVS 131010Z 04014KT 22/18 A2995 RMK A01 T02240179  RH  080%=      5-min Rain = 0
KWVS 131015Z 04011G16KT 22/18 A2996 RMK A01 T02230179  RH  080%=      5-min Rain = 0
KWVS 131020Z 04013KT 22/18 A2996 RMK A01 T02230179  RH  080%=      5-min Rain = 0
KWVS 131025Z 03013KT 22/18 A2996 RMK A01 T02230179  RH  080%=      5-min Rain = 0
KWVS 131030Z 04013KT 22/18 A2996 RMK A01 T02220179  RH  081%=      5-min Rain = 0
KWVS 131035Z 03013G18KT 22/18 A2996 RMK A01 T02210179  RH  081%=      5-min Rain = 0
KWVS 131040Z 03013KT 22/18 A2996 RMK A01 T02200179  RH  082%=      5-min Rain = 0
KWVS 131045Z 04012G17KT 22/18 A2997 RMK A01 T02190179  RH  082%=      5-min Rain = 0
KWVS 131050Z 03011KT 22/18 A2997 RMK A01 T02190179  RH  082%=      5-min Rain = 0
KWVS 131055Z 03012KT 22/18 A2997 RMK A01 T02180179  RH  083%=      5-min Rain = 0
KWVS 131100Z 03011KT 22/18 A2997 RMK A01 T02180179  RH  083%=      5-min Rain = 0
KWVS 131105Z 03012G17KT 22/18 A2997 RMK A01 T02180179  RH  083%=      5-min Rain = 0
KWVS 131110Z 04012KT 22/18 A2997 RMK A01 T02170179  RH  083%=      5-min Rain = 0
KWVS 131115Z 04012KT 22/18 A2998 RMK A01 T02170179  RH  083%=      5-min Rain = 0
KWVS 131120Z 04010KT 22/18 A2998 RMK A01 T02170178  RH  083%=      5-min Rain = 0
KWVS 131125Z 04010KT 22/18 A2998 RMK A01 T02160178  RH  083%=      5-min Rain = 0
KWVS 131130Z 04011KT 22/18 A2998 RMK A01 T02160179  RH  084%=      5-min Rain = 0
KWVS 131135Z 05012KT 22/18 A2998 RMK A01 T02150179  RH  084%=      5-min Rain = 0
KWVS 131140Z 05012G17KT 22/18 A2998 RMK A01 T02150179  RH  084%=      5-min Rain = 0
KWVS 131145Z 04011KT 21/18 A2998 RMK A01 T02140179  RH  085%=      5-min Rain = 0
KWVS 131150Z 05011G16KT 21/18 A2998 RMK A01 T02140179  RH  085%=      5-min Rain = 0
KWVS 131155Z 04011KT 21/18 A2998 RMK A01 T02130180  RH  085%=      5-min Rain = 0
KWVS 131200Z 04011KT 21/18 A2998 RMK A01 T02130180  RH  085%=      5-min Rain = 0
KWVS 131205Z 05012KT 21/18 A2998 RMK A01 T02140180  RH  085%=      5-min Rain = 0
KWVS 131210Z 05011KT 21/18 A2999 RMK A01 T02140180  RH  085%=      5-min Rain = 0
KWVS 131215Z 05011G16KT 21/18 A2999 RMK A01 T02140180  RH  085%=      5-min Rain = 0
KWVS 131220Z 05011KT 21/18 A2999 RMK A01 T02140180  RH  085%=      5-min Rain = 0
KWVS 131225Z 05012G17KT 21/18 A2999 RMK A01 T02140180  RH  085%=      5-min Rain = 0
KWVS 131230Z 05012KT 22/18 A2999 RMK A01 T02150180  RH  085%=      5-min Rain = 0
KWVS 131235Z 05010G15KT 22/18 A2999 RMK A01 T02150180  RH  085%=      5-min Rain = 0
KWVS 131240Z 05010KT 22/18 A2999 RMK A01 T02160180  RH  084%=      5-min Rain = 0
KWVS 131245Z 06010KT 22/18 A2999 RMK A01 T02180181  RH  084%=      5-min Rain = 0
KWVS 131250Z 05009KT 22/18 A2999 RMK A01 T02190181  RH  083%=      5-min Rain = 0
KWVS 131255Z 05010KT 22/18 A2999 RMK A01 T02200181  RH  082%=      5-min Rain = 0
KWVS 131300Z 05010KT 22/18 A30 RMK A01 T02230181  RH  081%=      5-min Rain = 0
KWVS 131305Z 05011G16KT 23/18 A30 RMK A01 T02250182  RH  081%=      5-min Rain = 0
KWVS 131310Z 06010KT 23/18 A30 RMK A01 T02280182  RH  079%=      5-min Rain = 0
KWVS 131315Z 05010KT 23/18 A3001 RMK A01 T02280182  RH  079%=      5-min Rain = 0
KWVS 131320Z 05012KT 23/18 A3001 RMK A01 T02270181  RH  079%=      5-min Rain = 0
KWVS 131325Z 05011KT 23/18 A3002 RMK A01 T02310182  RH  078%=      5-min Rain = 0
KWVS 131330Z 05011G16KT 23/18 A3002 RMK A01 T02340182  RH  076%=      5-min Rain = 0
KWVS 131335Z 06011G16KT 24/18 A3002 RMK A01 T02360182  RH  076%=      5-min Rain = 0
KWVS 131340Z 05012G18KT 24/18 A3002 RMK A01 T02400182  RH  074%=      5-min Rain = 0
KWVS 131345Z 06012KT 24/18 A3002 RMK A01 T02400181  RH  074%=      5-min Rain = 0
KWVS 131350Z 05011G16KT 24/18 A3002 RMK A01 T02430182  RH  072%=      5-min Rain = 0
KWVS 131355Z 06014G19KT 24/18 A3002 RMK A01 T02440181  RH  072%=      5-min Rain = 0
KWVS 131400Z 06015KT 25/18 A3002 RMK A01 T02450181  RH  071%=      5-min Rain = 0
KWVS 131405Z 05015G20KT 25/18 A3003 RMK A01 T02460180  RH  070%=      5-min Rain = 0
KWVS 131410Z 05014G19KT 25/18 A3003 RMK A01 T02480180  RH  069%=      5-min Rain = 0
KWVS 131415Z 06015G20KT 25/18 A3003 RMK A01 T02490179  RH  069%=      5-min Rain = 0
KWVS 131420Z 08013G19KT 25/18 A3003 RMK A01 T02530180  RH  068%=      5-min Rain = 0
KWVS 131425Z 06013G18KT 26/18 A3003 RMK A01 T02560180  RH  066%=      5-min Rain = 0
KWVS 131430Z 06014G19KT 26/18 A3003 RMK A01 T02570179  RH  065%=      5-min Rain = 0
KWVS 131435Z 07014G19KT 26/18 A3003 RMK A01 T02570179  RH  065%=      5-min Rain = 0
KWVS 131440Z 07013KT 26/18 A3003 RMK A01 T02610180  RH  064%=      5-min Rain = 0
KWVS 131445Z 06015KT 26/18 A3003 RMK A01 T02610179  RH  064%=      5-min Rain = 0
KWVS 131450Z 07014G21KT 26/18 A3003 RMK A01 T02610178  RH  063%=      5-min Rain = 0
KWVS 131455Z 07013G19KT 27/18 A3003 RMK A01 T02650179  RH  062%=      5-min Rain = 0
KWVS 131500Z 07013G20KT 27/18 A3003 RMK A01 T02690179  RH  061%=      5-min Rain = 0
KWVS 131505Z 05014G20KT 27/18 A3004 RMK A01 T02710178  RH  060%=      5-min Rain = 0
KWVS 131510Z 05014G19KT 27/18 A3004 RMK A01 T02710178  RH  060%=      5-min Rain = 0
KWVS 131515Z 06014KT 27/18 A3004 RMK A01 T02730178  RH  059%=      5-min Rain = 0
KWVS 131520Z 06012G19KT 28/18 A3004 RMK A01 T02790178  RH  057%=      5-min Rain = 0
KWVS 131525Z 07014KT 28/18 A3004 RMK A01 T02770176  RH  057%=      5-min Rain = 0
KWVS 131530Z 07013G18KT 28/18 A3004 RMK A01 T02770176  RH  057%=      5-min Rain = 0
KWVS 131535Z 07012KT 28/18 A3004 RMK A01 T02800176  RH  056%=      5-min Rain = 0
KWVS 131540Z 06011G16KT 28/18 A3004 RMK A01 T02840177  RH  055%=      5-min Rain = 0
KWVS 131545Z 06013G19KT 28/18 A3004 RMK A01 T02840175  RH  054%=      5-min Rain = 0
KWVS 131550Z 07012G18KT 29/17 A3004 RMK A01 T02870174  RH  053%=      5-min Rain = 0
KWVS 131555Z 07012G19KT 29/18 A3004 RMK A01 T02870175  RH  053%=      5-min Rain = 0
KWVS 131600Z 05014G20KT 29/17 A3004 RMK A01 T02910174  RH  052%=      5-min Rain = 0
KWVS 131605Z 06013G19KT 29/17 A3004 RMK A01 T02940173  RH  051%=      5-min Rain = 0
KWVS 131610Z 05013G19KT 30/17 A3004 RMK A01 T02950172  RH  050%=      5-min Rain = 0
KWVS 131615Z 07012KT 30/17 A3004 RMK A01 T02970173  RH  050%=      5-min Rain = 0
KWVS 131620Z 06012KT 30/17 A3005 RMK A01 T03010173  RH  048%=      5-min Rain = 0
KWVS 131625Z 07012G17KT 30/17 A3005 RMK A01 T03010173  RH  048%=      5-min Rain = 0
KWVS 131630Z 06012G17KT 31/17 A3005 RMK A01 T03070173  RH  047%=      5-min Rain = 0
KWVS 131635Z 08012G19KT 30/17 A3005 RMK A01 T03040170  RH  047%=      5-min Rain = 0
KWVS 131640Z 07013G18KT 31/17 A3005 RMK A01 T03080170  RH  046%=      5-min Rain = 0
KWVS 131645Z 08013KT 31/17 A3005 RMK A01 T03060170  RH  046%=      5-min Rain = 0
KWVS 131650Z 08014G21KT 31/17 A3005 RMK A01 T03070171  RH  046%=      5-min Rain = 0
KWVS 131655Z 06013G18KT 31/17 A3005 RMK A01 T03070169  RH  046%=      5-min Rain = 0
KWVS 131700Z 07011KT 31/17 A3005 RMK A01 T03120170  RH  045%=      5-min Rain = 0
KWVS 131705Z 07013G18KT 32/17 A3005 RMK A01 T03150170  RH  044%=      5-min Rain = 0
KWVS 131710Z 06012G21KT 32/17 A3005 RMK A01 T03160170  RH  044%=      5-min Rain = 0
KWVS 131715Z 06012G18KT 32/17 A3005 RMK A01 T03170171  RH  044%=      5-min Rain = 0
KWVS 131720Z 06012G17KT 32/17 A3005 RMK A01 T03150170  RH  044%=      5-min Rain = 0
KWVS 131725Z 07011G18KT 32/17 A3005 RMK A01 T03190171  RH  043%=      5-min Rain = 0
KWVS 131730Z 06014G19KT 32/17 A3004 RMK A01 T03170170  RH  043%=      5-min Rain = 0
KWVS 131735Z 07014KT 32/17 A3005 RMK A01 T03170170  RH  043%=      5-min Rain = 0
KWVS 131740Z 06012G17KT 32/17 A3005 RMK A01 T03180171  RH  044%=      5-min Rain = 0
KWVS 131745Z 04012G19KT 33/17 A3005 RMK A01 T03260171  RH  042%=      5-min Rain = 0
KWVS 131750Z 05012G18KT 33/17 A3005 RMK A01 T03250171  RH  042%=      5-min Rain = 0
KWVS 131755Z 05013G18KT 33/17 A3004 RMK A01 T03270171  RH  042%=      5-min Rain = 0
KWVS 131800Z 03013KT 33/17 A3005 RMK A01 T03300172  RH  041%=      5-min Rain = 0
KWVS 131805Z 04013G18KT 33/17 A3005 RMK A01 T03330171  RH  040%=      5-min Rain = 0
KWVS 131810Z 05011G16KT 33/17 A3005 RMK A01 T03290171  RH  041%=      5-min Rain = 0
KWVS 131815Z 05011G16KT 34/17 A3005 RMK A01 T03400171  RH  038%=      5-min Rain = 0
KWVS 131820Z 04013G19KT 34/17 A3005 RMK A01 T03360170  RH  039%=      5-min Rain = 0
KWVS 131825Z 05011G18KT 33/17 A3005 RMK A01 T03340172  RH  040%=      5-min Rain = 0
KWVS 131830Z 04012G22KT 34/17 A3004 RMK A01 T03350173  RH  040%=      5-min Rain = 0
KWVS 131835Z 03014KT 34/17 A3004 RMK A01 T03350170  RH  039%=      5-min Rain = 0
KWVS 131840Z 04013G18KT 33/17 A3004 RMK A01 T03320170  RH  040%=      5-min Rain = 0
KWVS 131845Z 04014G21KT 33/17 A3004 RMK A01 T03320168  RH  039%=      5-min Rain = 0
KWVS 131850Z 04010G16KT 34/17 A3004 RMK A01 T03360169  RH  039%=      5-min Rain = 0
KWVS 131855Z 05015G20KT 34/17 A3004 RMK A01 T03380166  RH  038%=      5-min Rain = 0
KWVS 131900Z 05010G15KT 33/17 A3004 RMK A01 T03330170  RH  040%=      5-min Rain = 0
KWVS 131905Z 05011G17KT 34/17 A3004 RMK A01 T03430171  RH  038%=      5-min Rain = 0
KWVS 131910Z 03012G20KT 34/17 A3004 RMK A01 T03440168  RH  037%=      5-min Rain = 0
KWVS 131915Z 04016G21KT 34/17 A3004 RMK A01 T03390165  RH  037%=      5-min Rain = 0
KWVS 131920Z 04014G19KT 34/17 A3004 RMK A01 T03350170  RH  040%=      5-min Rain = 0
KWVS 131925Z 04015G20KT 34/17 A3004 RMK A01 T03410168  RH  038%=      5-min Rain = 0
KWVS 131930Z 04014G20KT 34/17 A3004 RMK A01 T03440173  RH  038%=      5-min Rain = 0
KWVS 131935Z 05012G19KT 34/17 A3003 RMK A01 T03390173  RH  039%=      5-min Rain = 0
KWVS 131940Z 03015G20KT 34/17 A3003 RMK A01 T03410172  RH  039%=      5-min Rain = 0
KWVS 131945Z 04012G19KT 33/17 A3003 RMK A01 T03330173  RH  040%=      5-min Rain = 0
KWVS 131950Z 04015G22KT 34/17 A3003 RMK A01 T03380172  RH  039%=      5-min Rain = 0
KWVS 131955Z 04015G22KT 34/17 A3003 RMK A01 T03350171  RH  039%=      5-min Rain = 0
KWVS 132000Z 05012G19KT 34/17 A3003 RMK A01 T03350171  RH  039%=      5-min Rain = 0
KWVS 132005Z 04013G19KT 34/17 A3003 RMK A01 T03380169  RH  038%=      5-min Rain = 0
KWVS 132010Z 06013G18KT 34/17 A3003 RMK A01 T03430168  RH  037%=      5-min Rain = 0
KWVS 132015Z 05014G22KT 34/17 A3002 RMK A01 T03420168  RH  037%=      5-min Rain = 0
KWVS 132020Z 06015KT 34/17 A3002 RMK A01 T03440166  RH  037%=      5-min Rain = 0
KWVS 132025Z 09013G22KT 35/17 A3002 RMK A01 T03470168  RH  036%=      5-min Rain = 0
KWVS 132030Z 06014G20KT 35/17 A3002 RMK A01 T03480167  RH  036%=      5-min Rain = 0
KWVS 132035Z 05013KT 34/17 A3002 RMK A01 T03400165  RH  037%=      5-min Rain = 0
KWVS 132040Z 05012KT 34/16 A3002 RMK A01 T03390163  RH  037%=      5-min Rain = 0
KWVS 132045Z 06012G19KT 34/17 A3002 RMK A01 T03430166  RH  037%=      5-min Rain = 0
KWVS 132050Z 05012G18KT 35/17 A3002 RMK A01 T03480166  RH  036%=      5-min Rain = 0
KWVS 132055Z 07014G19KT 35/16 A3001 RMK A01 T03480164  RH  035%=      5-min Rain = 0
KWVS 132100Z 05011G23KT 35/16 A3001 RMK A01 T03460163  RH  035%=      5-min Rain = 0
KWVS 132105Z 08013G21KT 35/16 A3001 RMK A01 T03490164  RH  035%=      5-min Rain = 0
KWVS 132110Z 08010KT 34/16 A3001 RMK A01 T03400164  RH  037%=      5-min Rain = 0
KWVS 132115Z 07012KT 35/16 A3001 RMK A01 T03500163  RH  035%=      5-min Rain = 0
KWVS 132120Z 07011G19KT 35/16 A3001 RMK A01 T03450164  RH  036%=      5-min Rain = 0
KWVS 132125Z 06011G18KT 35/16 A3001 RMK A01 T03480163  RH  035%=      5-min Rain = 0
KWVS 132130Z 06011G19KT 35/16 A30 RMK A01 T03530164  RH  034%=      5-min Rain = 0
KWVS 132135Z 05012G17KT 36/16 A30 RMK A01 T03560163  RH  034%=      5-min Rain = 0
KWVS 132140Z 06010KT 35/16 A30 RMK A01 T03520164  RH  034%=      5-min Rain = 0
KWVS 132145Z 08008G14KT 35/16 A30 RMK A01 T03520162  RH  034%=      5-min Rain = 0
KWVS 132150Z 07011G16KT 35/16 A30 RMK A01 T03530164  RH  034%=      5-min Rain = 0
KWVS 132155Z 07011G17KT 35/16 A30 RMK A01 T03450162  RH  035%=      5-min Rain = 0
KWVS 132200Z 06012G17KT 34/16 A30 RMK A01 T03420162  RH  036%=      5-min Rain = 0
KWVS 132205Z 08008G14KT 35/16 A30 RMK A01 T03470161  RH  035%=      5-min Rain = 0
KWVS 132210Z 07010G15KT 35/16 A2999 RMK A01 T03510163  RH  034%=      5-min Rain = 0
KWVS 132215Z 08012G17KT 35/16 A2999 RMK A01 T03520163  RH  034%=      5-min Rain = 0
KWVS 132220Z 08011KT 35/16 A2999 RMK A01 T03500163  RH  034%=      5-min Rain = 0
KWVS 132225Z 06011G17KT 34/16 A2999 RMK A01 T03430164  RH  036%=      5-min Rain = 0
KWVS 132230Z 06010G15KT 35/16 A2999 RMK A01 T03490164  RH  035%=      5-min Rain = 0
KWVS 132235Z 06014G19KT 35/16 A2999 RMK A01 T03500164  RH  035%=      5-min Rain = 0
KWVS 132240Z 07012G18KT 34/16 A2999 RMK A01 T03390163  RH  037%=      5-min Rain = 0
KWVS 132245Z 06011G17KT 35/16 A2999 RMK A01 T03450163  RH  036%=      5-min Rain = 0
KWVS 132250Z 06010KT 35/16 A2999 RMK A01 T03470163  RH  035%=      5-min Rain = 0
KWVS 132255Z 06010G15KT 35/16 A2999 RMK A01 T03480163  RH  035%=      5-min Rain = 0
KWVS 132300Z 06012G18KT 35/16 A2999 RMK A01 T03480164  RH  035%=      5-min Rain = 0
KWVS 132305Z 07011G16KT 35/17 A2999 RMK A01 T03450165  RH  036%=      5-min Rain = 0
KWVS 132310Z 07012KT 34/16 A2999 RMK A01 T03430164  RH  036%=      5-min Rain = 0
KWVS 132315Z 07009G15KT 34/16 A2999 RMK A01 T03430164  RH  036%=      5-min Rain = 0
KWVS 132320Z 06011G19KT 35/16 A2999 RMK A01 T03470164  RH  035%=      5-min Rain = 0
KWVS 132325Z 06011G16KT 35/16 A2999 RMK A01 T03480163  RH  035%=      5-min Rain = 0
KWVS 132330Z 09009KT 34/16 A2999 RMK A01 T03440164  RH  036%=      5-min Rain = 0
KWVS 132335Z 09010KT 34/16 A2999 RMK A01 T03440163  RH  036%=      5-min Rain = 0
KWVS 132340Z 07010G17KT 34/17 A2999 RMK A01 T03440165  RH  036%=      5-min Rain = 0
KWVS 132345Z 07011KT 34/16 A2999 RMK A01 T03410163  RH  036%=      5-min Rain = 0
KWVS 132350Z 06010KT 34/16 A2999 RMK A01 T03410163  RH  036%=      5-min Rain = 0
KWVS 132355Z 05012KT 34/16 A2999 RMK A01 T03380163  RH  037%=      5-min Rain = 0
KWVS 140000Z 05008KT 34/16 A2999 RMK A01 T03400164  RH  037%=      5-min Rain = 0
KWVS 140005Z 07010G17KT 34/17 A2999 RMK A01 T03380166  RH  038%=      5-min Rain = 0
KWVS 140010Z 07011G17KT 34/17 A2999 RMK A01 T03360167  RH  038%=      5-min Rain = 0
KWVS 140015Z 07009KT 34/17 A2999 RMK A01 T03370167  RH  038%=      5-min Rain = 0
KWVS 140020Z 07009G15KT 33/17 A2999 RMK A01 T03330168  RH  039%=      5-min Rain = 0
KWVS 140025Z 07008KT 33/17 A2999 RMK A01 T03340169  RH  039%=      5-min Rain = 0
KWVS 140030Z 05010G15KT 33/17 A30 RMK A01 T03320169  RH  040%=      5-min Rain = 0
KWVS 140035Z 05011G16KT 33/17 A30 RMK A01 T03260170  RH  041%=      5-min Rain = 0
KWVS 140040Z 05012KT 33/17 A30 RMK A01 T03270170  RH  041%=      5-min Rain = 0
KWVS 140045Z 05010KT 33/17 A30 RMK A01 T03250170  RH  041%=      5-min Rain = 0
KWVS 140050Z 05009G14KT 33/17 A30 RMK A01 T03250170  RH  042%=      5-min Rain = 0
KWVS 140055Z 06009KT 32/17 A3001 RMK A01 T03240170  RH  042%=      5-min Rain = 0
KWVS 140100Z 05010G15KT 32/17 A3001 RMK A01 T03230170  RH  042%=      5-min Rain = 0
KWVS 140105Z 05010G16KT 32/17 A3001 RMK A01 T03210170  RH  042%=      5-min Rain = 0
KWVS 140110Z 06008KT 32/17 A3001 RMK A01 T03190169  RH  043%=      5-min Rain = 0
KWVS 140115Z 07009KT 32/17 A3001 RMK A01 T03180170  RH  043%=      5-min Rain = 0
KWVS 140120Z 07010KT 32/17 A3001 RMK A01 T03170170  RH  044%=      5-min Rain = 0
KWVS 140125Z 08009KT 32/17 A3002 RMK A01 T03150171  RH  044%=      5-min Rain = 0
KWVS 140130Z 07009KT 31/17 A3002 RMK A01 T03140171  RH  045%=      5-min Rain = 0
KWVS 140135Z 06008KT 31/17 A3002 RMK A01 T03120170  RH  045%=      5-min Rain = 0
KWVS 140140Z 06009KT 31/17 A3002 RMK A01 T03110170  RH  045%=      5-min Rain = 0
KWVS 140145Z 06008KT 31/17 A3002 RMK A01 T03090170  RH  045%=      5-min Rain = 0
KWVS 140150Z 06007KT 31/17 A3002 RMK A01 T03080171  RH  046%=      5-min Rain = 0
KWVS 140155Z 06008KT 31/17 A3002 RMK A01 T03060171  RH  047%=      5-min Rain = 0
KWVS 140200Z 06008KT 30/17 A3003 RMK A01 T03040172  RH  047%=      5-min Rain = 0
KWVS 140205Z 06009KT 30/17 A3003 RMK A01 T03030172  RH  048%=      5-min Rain = 0
KWVS 140210Z 05008KT 30/17 A3003 RMK A01 T03020172  RH  048%=      5-min Rain = 0
KWVS 140215Z 05007KT 30/17 A3004 RMK A01 T03010172  RH  048%=      5-min Rain = 0
KWVS 140220Z 05008KT 30/17 A3004 RMK A01 T03000172  RH  049%=      5-min Rain = 0
KWVS 140225Z 05008KT 30/17 A3005 RMK A01 T02990172  RH  049%=      5-min Rain = 0
KWVS 140230Z 05008KT 30/17 A3005 RMK A01 T02980172  RH  049%=      5-min Rain = 0
KWVS 140235Z 05010KT 30/17 A3006 RMK A01 T02970173  RH  050%=      5-min Rain = 0
KWVS 140240Z 05008G13KT 30/17 A3006 RMK A01 T02970173  RH  050%=      5-min Rain = 0
KWVS 140245Z 06008G13KT 30/17 A3006 RMK A01 T02950173  RH  050%=      5-min Rain = 0
KWVS 140250Z 06008KT 29/17 A3006 RMK A01 T02930173  RH  051%=      5-min Rain = 0
KWVS 140255Z 05009KT 29/17 A3006 RMK A01 T02930174  RH  051%=      5-min Rain = 0
KWVS 140300Z 05009KT 29/17 A3006 RMK A01 T02920173  RH  051%=      5-min Rain = 0
KWVS 140305Z 06008KT 29/17 A3007 RMK A01 T02910173  RH  052%=      5-min Rain = 0
KWVS 140310Z 05009KT 29/17 A3006 RMK A01 T02890173  RH  052%=      5-min Rain = 0
KWVS 140315Z 05009KT 29/17 A3007 RMK A01 T02880173  RH  052%=      5-min Rain = 0
KWVS 140320Z 05009KT 29/17 A3007 RMK A01 T02870173  RH  053%=      5-min Rain = 0
KWVS 140325Z 05009KT 29/17 A3007 RMK A01 T02860172  RH  053%=      5-min Rain = 0
KWVS 140330Z 04009KT 29/17 A3007 RMK A01 T02850172  RH  053%=      5-min Rain = 0
KWVS 140335Z 04009KT 29/17 A3008 RMK A01 T02850172  RH  053%=      5-min Rain = 0
KWVS 140340Z 04009KT 28/17 A3008 RMK A01 T02830172  RH  054%=      5-min Rain = 0
KWVS 140345Z 05009KT 28/17 A3008 RMK A01 T02820172  RH  054%=      5-min Rain = 0
KWVS 140350Z 05009KT 28/17 A3008 RMK A01 T02820172  RH  054%=      5-min Rain = 0
KWVS 140355Z 05007KT 28/17 A3008 RMK A01 T02800172  RH  055%=      5-min Rain = 0
KWVS 140400Z 05008KT 28/17 A3008 RMK A01 T02780172  RH  055%=      5-min Rain = 0
KWVS 140405Z 05007KT 28/17 A3008 RMK A01 T02760172  RH  056%=      5-min Rain = 0
KWVS 140410Z 05007KT 28/17 A3008 RMK A01 T02750173  RH  056%=      5-min Rain = 0
KWVS 140415Z 05006KT 27/17 A3009 RMK A01 T02740172  RH  057%=      5-min Rain = 0
KWVS 140420Z 05007KT 27/17 A3009 RMK A01 T02730172  RH  057%=      5-min Rain = 0
KWVS 140425Z 04008KT 27/17 A3009 RMK A01 T02720172  RH  057%=      5-min Rain = 0
KWVS 140430Z 05008KT 27/17 A3009 RMK A01 T02730172  RH  057%=      5-min Rain = 0
KWVS 140435Z 05007KT 27/17 A3009 RMK A01 T02720173  RH  057%=      5-min Rain = 0
KWVS 140440Z 05007KT 27/17 A3009 RMK A01 T02710172  RH  058%=      5-min Rain = 0
KWVS 140445Z 05007KT 27/17 A3009 RMK A01 T02690172  RH  058%=      5-min Rain = 0
KWVS 140450Z 04007KT 27/17 A3009 RMK A01 T02680172  RH  058%=      5-min Rain = 0
KWVS 140455Z 04007KT 27/17 A3009 RMK A01 T02670172  RH  059%=      5-min Rain = 0

Page generated in 0.0151 seconds.